Terminal Aerodrome Forecast
Issued by NWS

Current Version | Previous Version | Text Only | Print | Product List | Glossary On
Versions: 1 2 3 4 5 6 7 8 9 10 11 12 13 14 15 16 17 18 19 20
000
FTUS43 KIND 210800 AAA
TAFBMG
TAF AMD
KBMG 210825Z 2108/2206 VRB02KT 6SM BR SCT060
      TEMPO 2109/2113 5SM BR SCT028
     FM211300 VRB02KT 4SM BR OVC030
     FM211500 15005KT 6SM BR OVC040
     FM211900 13005KT P6SM BKN080
      AMD LTD TO CLD VIS AND WIND TIL 211400=

USA.gov is the U.S. government's official web portal to all federal, state and local government web resources and services.